Time;durP1;ratioP1;P1;durP2;ratioP2;P2;SDS_P1;SDS_P2;PMS_P1;PMS_P2;Temp;Humidity;BMP_temperature;BMP_pressure;BME280_temperature;BME280_humidity;BME280_pressure;Samples;Min_cycle;Max_cycle;Signal;HPM_P1;HPM_P2
2022/09/27 00:00:43;;;;;;;7.53;1.95;;;;;;;11.30;87.02;99480.72;3578133;40;20240;-64
2022/09/27 00:03:12;;;;;;;5.93;2.33;;;;;;;11.18;86.06;99469.16;3578215;40;20045;-64
2022/09/27 00:05:38;;;;;;;5.05;2.05;;;;;;;11.26;86.91;99482.81;3576594;40;20126;-63
2022/09/27 00:08:04;;;;;;;5.20;2.08;;;;;;;11.26;86.65;99480.13;3578620;40;20060;-64
2022/09/27 00:10:30;;;;;;;8.80;2.03;;;;;;;11.18;86.63;99457.56;3579975;40;20193;-63
2022/09/27 00:12:58;;;;;;;4.07;1.52;;;;;;;11.25;86.72;99481.09;3579864;40;20377;-63
2022/09/27 00:15:24;;;;;;;7.00;1.88;;;;;;;11.15;86.55;99472.09;3578905;40;20052;-63
2022/09/27 00:17:52;;;;;;;4.25;1.60;;;;;;;11.27;86.18;99483.66;3579265;40;20075;-63
2022/09/27 00:20:20;;;;;;;5.45;1.50;;;;;;;11.26;85.98;99488.19;3579496;40;20064;-64
2022/09/27 00:22:47;;;;;;;3.10;1.80;;;;;;;11.26;86.31;99490.00;3578180;40;20076;-64
2022/09/27 00:25:14;;;;;;;7.25;2.00;;;;;;;11.25;86.21;99493.69;3579587;40;20079;-64
2022/09/27 00:27:40;;;;;;;5.00;1.90;;;;;;;11.26;85.80;99503.44;3579383;40;20401;-63
2022/09/27 00:30:06;;;;;;;7.28;1.58;;;;;;;11.26;86.05;99500.75;3577661;40;20045;-66
2022/09/27 00:32:32;;;;;;;5.13;1.40;;;;;;;11.25;86.04;99509.81;3579638;40;20060;-65
2022/09/27 00:34:58;;;;;;;5.35;1.35;;;;;;;11.26;85.68;99533.91;3578329;40;20276;-65
2022/09/27 00:37:24;;;;;;;6.70;1.80;;;;;;;10.67;85.91;99421.56;3579368;40;20447;-66
2022/09/27 00:39:50;;;;;;;5.97;1.70;;;;;;;11.28;86.18;99514.94;3578053;40;20060;-63
2022/09/27 00:42:16;;;;;;;2.78;1.35;;;;;;;11.28;86.28;99513.09;3580462;40;20064;-64
2022/09/27 00:44:52;;;;;;;5.80;1.52;;;;;;;11.30;86.09;99513.00;3578536;40;20077;-65
2022/09/27 00:47:29;;;;;;;5.80;1.48;;;;;;;11.31;86.50;99515.53;3579861;40;20049;-64
2022/09/27 00:50:41;;;;;;;4.60;1.90;;;;;;;11.32;86.48;99516.38;3579770;40;20057;-63
2022/09/27 00:53:26;;;;;;;6.10;1.70;;;;;;;11.29;86.42;99512.13;3571112;40;20056;-64
2022/09/27 00:56:01;;;;;;;7.78;1.85;;;;;;;11.30;85.82;99507.59;3579461;40;20061;-63
2022/09/27 00:58:38;;;;;;;4.10;1.50;;;;;;;10.61;85.86;99393.34;3578286;40;20048;-63
2022/09/27 01:01:12;;;;;;;9.20;1.65;;;;;;;10.61;85.44;99404.09;3578403;40;20072;-65
2022/09/27 01:04:06;;;;;;;6.55;1.42;;;;;;;11.18;85.90;99498.75;3577235;40;20052;-65
2022/09/27 01:06:32;;;;;;;;;;;;;;;11.18;85.57;99503.28;3585796;40;20271;-64
2022/09/27 01:08:58;;;;;;;6.20;1.00;;;;;;;11.15;86.03;99504.38;3579401;40;19937;-65
2022/09/27 01:12:10;;;;;;;2.92;1.40;;;;;;;11.13;85.31;99511.72;3580106;40;20064;-64
2022/09/27 01:15:04;;;;;;;3.72;1.15;;;;;;;11.14;85.95;99497.31;3577282;40;20052;-65
2022/09/27 01:18:14;;;;;;;4.82;1.50;;;;;;;11.05;85.39;99481.97;3580568;40;20052;-64
2022/09/27 01:21:09;;;;;;;2.53;1.05;;;;;;;11.15;85.12;99502.53;3579062;40;20052;-64
2022/09/27 01:23:56;;;;;;;3.63;0.93;;;;;;;11.15;85.07;99504.38;3576537;40;20055;-65
2022/09/27 01:26:46;;;;;;;3.28;1.27;;;;;;;11.13;84.56;99517.09;3579305;40;20044;-65
2022/09/27 01:29:44;;;;;;;3.40;1.23;;;;;;;11.09;84.92;99513.81;3578124;40;20100;-65
2022/09/27 01:32:51;;;;;;;5.15;1.48;;;;;;;11.08;85.48;99519.34;3579019;40;20048;-65
2022/09/27 01:35:47;;;;;;;5.85;1.05;;;;;;;11.04;85.02;99517.91;3579216;40;20061;-65
2022/09/27 01:38:36;;;;;;;3.42;0.80;;;;;;;11.06;85.00;99526.69;3577209;40;20049;-65
2022/09/27 01:41:21;;;;;;;4.40;1.00;;;;;;;11.00;84.61;99529.88;3580501;40;20096;-66
2022/09/27 01:44:20;;;;;;;2.40;0.93;;;;;;;10.98;84.55;99530.03;3578443;40;20055;-65
2022/09/27 01:46:55;;;;;;;4.40;1.15;;;;;;;10.95;84.86;99524.06;3578286;40;20137;-66
2022/09/27 01:50:05;;;;;;;3.60;1.20;;;;;;;9.94;84.96;99374.81;3585312;40;20233;-65
2022/09/27 01:52:58;;;;;;;5.28;1.13;;;;;;;10.85;85.43;99530.22;3580143;40;20059;-65
2022/09/27 01:55:33;;;;;;;4.50;1.27;;;;;;;10.85;85.00;99532.91;3580510;40;20295;-65
2022/09/27 01:58:11;;;;;;;4.57;2.10;;;;;;;10.82;84.48;99551.97;3580338;40;21578;-65
2022/09/27 02:00:44;;;;;;;2.42;0.75;;;;;;;10.79;84.51;99549.53;3580997;40;20053;-65
2022/09/27 02:03:24;;;;;;;4.72;1.48;;;;;;;10.79;84.25;99546.84;3579077;40;20127;-65
2022/09/27 02:06:03;;;;;;;9.75;1.10;;;;;;;10.76;84.09;99539.03;3579233;40;20064;-65
2022/09/27 02:08:54;;;;;;;3.97;0.93;;;;;;;10.67;84.40;99524.53;3581596;40;20129;-64
2022/09/27 02:11:20;;;;;;;8.88;0.98;;;;;;;10.65;82.93;99531.84;3581493;40;20080;-64
2022/09/27 02:13:59;;;;;;;5.13;0.80;;;;;;;10.72;83.43;99544.78;3578705;40;20060;-63
2022/09/27 02:16:57;;;;;;;5.60;1.52;;;;;;;10.73;82.82;99559.94;3579056;40;20394;-66
2022/09/27 02:20:02;;;;;;;3.85;1.00;;;;;;;10.72;82.50;99545.66;3580233;40;20431;-65
2022/09/27 02:23:14;;;;;;;3.72;0.98;;;;;;;10.69;83.08;99554.81;3578854;40;20303;-64
2022/09/27 02:25:56;;;;;;;2.53;0.82;;;;;;;10.68;82.97;99545.03;3581329;40;20056;-64
2022/09/27 02:29:00;;;;;;;3.47;0.80;;;;;;;10.68;82.42;99544.19;3579583;40;20055;-64
2022/09/27 02:31:25;;;;;;;4.25;0.98;;;;;;;10.67;82.90;99542.47;3576870;40;20055;-64
2022/09/27 02:34:01;;;;;;;3.35;1.08;;;;;;;10.68;83.61;99536.97;3581497;40;20064;-65
2022/09/27 02:36:28;;;;;;;1.65;0.45;;;;;;;10.62;82.88;99536.63;3580965;40;20055;-65
2022/09/27 02:38:54;;;;;;;4.22;0.90;;;;;;;9.94;83.06;99437.41;3580766;40;20052;-64
2022/09/27 02:41:22;;;;;;;2.95;0.95;;;;;;;10.65;83.00;99566.78;3578351;40;20068;-66
2022/09/27 02:43:55;;;;;;;5.38;0.98;;;;;;;9.89;83.00;99436.91;3581201;40;20066;-66
2022/09/27 02:46:45;;;;;;;5.55;1.00;;;;;;;10.59;82.42;99561.94;3578014;40;20064;-65
2022/09/27 02:49:49;;;;;;;2.67;0.80;;;;;;;10.54;82.84;99555.22;3577466;40;20373;-66
2022/09/27 02:52:32;;;;;;;4.85;1.10;;;;;;;10.42;82.41;99547.19;3579995;40;20075;-66
2022/09/27 02:55:35;;;;;;;2.13;0.85;;;;;;;10.41;82.90;99553.53;3580937;40;20045;-65
2022/09/27 02:58:20;;;;;;;7.07;2.90;;;;;;;10.36;82.19;99554.88;3577219;40;20061;-64
2022/09/27 03:01:34;;;;;;;5.07;1.50;;;;;;;10.28;82.60;99547.47;3591041;39;20082;-65
2022/09/27 03:04:24;;;;;;;5.33;1.27;;;;;;;9.67;82.69;99453.91;3587780;39;20063;-66
2022/09/27 03:06:54;;;;;;;5.88;1.23;;;;;;;10.15;83.28;99536.00;3578775;40;20060;-65
2022/09/27 03:09:24;;;;;;;4.75;0.98;;;;;;;10.14;83.25;99534.25;3578988;40;20071;-65
2022/09/27 03:11:50;;;;;;;2.88;0.65;;;;;;;10.25;83.69;99553.06;3579680;40;20059;-64
2022/09/27 03:14:16;;;;;;;4.53;0.88;;;;;;;10.17;83.50;99542.06;3580620;40;20356;-65
2022/09/27 03:16:42;;;;;;;5.43;1.00;;;;;;;10.19;83.92;99549.03;3579186;40;20059;-65
2022/09/27 03:19:08;;;;;;;6.82;0.77;;;;;;;10.18;83.28;99549.13;3580649;40;20064;-65
2022/09/27 03:21:34;;;;;;;6.63;1.17;;;;;;;10.15;84.36;99546.72;3580227;40;20125;-63
2022/09/27 03:24:01;;;;;;;3.75;1.20;;;;;;;10.12;84.02;99544.28;3577884;40;20090;-64
2022/09/27 03:26:26;;;;;;;5.57;1.60;;;;;;;10.10;84.10;99556.97;3579010;40;20048;-64
2022/09/27 03:28:52;;;;;;;4.75;0.90;;;;;;;10.08;84.74;99546.34;3587023;39;20054;-64
2022/09/27 03:31:19;;;;;;;3.53;0.90;;;;;;;10.09;84.33;99552.59;3578363;40;20076;-66
2022/09/27 03:33:44;;;;;;;5.88;1.08;;;;;;;10.11;85.13;99551.47;3579152;40;20074;-65
2022/09/27 03:36:10;;;;;;;5.38;1.23;;;;;;;10.13;84.80;99556.72;3578137;40;20067;-65
2022/09/27 03:38:37;;;;;;;4.28;0.82;;;;;;;10.15;84.65;99563.69;3579247;40;20071;-65
2022/09/27 03:41:03;;;;;;;7.00;1.50;;;;;;;10.17;84.87;99563.56;3575937;40;20063;-64
2022/09/27 03:43:29;;;;;;;6.03;1.50;;;;;;;10.17;85.09;99560.88;3586068;40;20061;-65
2022/09/27 03:45:55;;;;;;;4.95;1.25;;;;;;;10.21;84.76;99567.69;3580790;40;20056;-64
2022/09/27 03:48:21;;;;;;;9.68;1.35;;;;;;;10.21;84.97;99571.25;3588789;40;20422;-64
2022/09/27 03:50:46;;;;;;;5.00;1.05;;;;;;;10.25;84.64;99571.84;3582100;40;20067;-64
2022/09/27 03:53:12;;;;;;;6.15;1.33;;;;;;;10.27;84.69;99575.28;3581966;40;20044;-64
2022/09/27 03:55:38;;;;;;;5.45;1.05;;;;;;;10.29;84.49;99584.09;3584211;40;20284;-65
2022/09/27 03:58:04;;;;;;;5.15;1.23;;;;;;;10.27;84.58;99577.97;3586806;40;20060;-65
2022/09/27 04:00:31;;;;;;;7.13;1.75;;;;;;;10.32;84.95;99597.25;3583451;40;20142;-64
2022/09/27 04:02:58;;;;;;;7.05;1.23;;;;;;;9.76;84.74;99516.72;3580810;40;20060;-63
2022/09/27 04:05:27;;;;;;;4.47;1.10;;;;;;;10.28;84.56;99603.88;3578961;40;20056;-64
2022/09/27 04:07:53;;;;;;;6.45;1.67;;;;;;;10.25;85.09;99609.47;3578917;40;20048;-65
2022/09/27 04:10:19;;;;;;;4.00;0.80;;;;;;;10.21;84.66;99607.97;3584421;39;20078;-63
2022/09/27 04:12:45;;;;;;;2.28;0.85;;;;;;;10.23;84.57;99614.09;3576427;40;20135;-64
2022/09/27 04:15:11;;;;;;;2.58;0.90;;;;;;;9.74;84.79;99524.03;3576082;40;20374;-63
2022/09/27 04:17:41;;;;;;;7.32;1.15;;;;;;;10.22;84.40;99604.34;3580335;40;20060;-62
2022/09/27 04:20:07;;;;;;;5.75;1.17;;;;;;;10.18;84.39;99594.78;3575808;40;20068;-66
2022/09/27 04:22:33;;;;;;;4.63;0.90;;;;;;;10.22;83.95;99598.97;3578644;40;20340;-64
2022/09/27 04:24:58;;;;;;;2.88;0.77;;;;;;;10.11;84.31;99569.41;3578210;40;20060;-63
2022/09/27 04:27:24;;;;;;;3.35;0.82;;;;;;;10.25;84.21;99579.06;3577104;40;20060;-63
2022/09/27 04:29:49;;;;;;;3.55;0.90;;;;;;;10.25;83.43;99579.91;3575627;40;20934;-63
2022/09/27 04:32:15;;;;;;;2.60;0.57;;;;;;;10.24;83.23;99580.88;3579280;40;20068;-64
2022/09/27 04:37:26;;;;;;;4.07;0.85;;;;;;;9.72;83.74;99496.47;3577025;40;20124;-63
2022/09/27 04:39:54;;;;;;;1.85;0.82;;;;;;;10.18;84.56;99578.66;3580314;40;20106;-63
2022/09/27 04:42:19;;;;;;;3.28;0.65;;;;;;;10.17;84.13;99572.47;3576518;40;20088;-65
2022/09/27 04:44:46;;;;;;;3.53;0.77;;;;;;;10.19;84.66;99567.81;3576285;40;20283;-64
2022/09/27 04:47:12;;;;;;;3.70;0.68;;;;;;;10.17;83.88;99571.59;3575735;40;20048;-65
2022/09/27 04:49:38;;;;;;;2.97;0.60;;;;;;;9.54;83.94;99472.78;3579296;40;20551;-65
2022/09/27 04:52:04;;;;;;;3.75;0.95;;;;;;;10.15;83.65;99573.59;3577032;40;20126;-63
2022/09/27 04:54:31;;;;;;;5.82;0.90;;;;;;;9.62;84.09;99490.97;3575179;40;20344;-64
2022/09/27 04:56:57;;;;;;;3.90;0.82;;;;;;;10.14;84.07;99577.22;3578646;40;20052;-64
2022/09/27 04:59:22;;;;;;;3.08;0.73;;;;;;;10.10;83.98;99571.25;3577052;40;20064;-65
2022/09/27 05:01:49;;;;;;;3.20;0.85;;;;;;;10.12;84.41;99584.56;3577242;40;20051;-65
2022/09/27 05:04:15;;;;;;;3.47;0.90;;;;;;;10.04;83.84;99581.63;3579180;40;20052;-64
2022/09/27 05:06:40;;;;;;;3.08;0.80;;;;;;;10.11;84.42;99598.94;3578940;40;20478;-64
2022/09/27 05:09:06;;;;;;;3.13;0.85;;;;;;;10.09;83.48;99599.09;3574270;40;20072;-64
2022/09/27 05:11:32;;;;;;;3.08;0.75;;;;;;;10.03;83.01;99613.00;3577887;40;20056;-64
2022/09/27 05:13:57;;;;;;;2.75;0.75;;;;;;;10.04;83.87;99611.16;3579473;40;20056;-64
2022/09/27 05:16:23;;;;;;;2.63;0.65;;;;;;;10.02;83.87;99605.91;3575245;40;20045;-65
2022/09/27 05:18:49;;;;;;;3.60;1.05;;;;;;;10.04;83.82;99608.47;3578173;40;20056;-63
2022/09/27 05:21:15;;;;;;;2.03;0.70;;;;;;;10.03;83.59;99609.47;3578133;40;20791;-65
2022/09/27 05:23:40;;;;;;;1.50;0.60;;;;;;;9.93;83.29;99599.44;3579992;40;20098;-64
2022/09/27 05:26:07;;;;;;;2.92;1.00;;;;;;;9.97;83.88;99603.59;3575352;40;20044;-64
2022/09/27 05:28:36;;;;;;;1.30;0.50;;;;;;;9.84;83.82;99585.91;3581642;40;20121;-63
2022/09/27 05:31:02;;;;;;;2.50;0.50;;;;;;;9.32;84.18;99498.75;3578601;40;20092;-63
2022/09/27 05:33:28;;;;;;;5.95;1.17;;;;;;;9.94;83.70;99609.19;3579511;40;20052;-62
2022/09/27 05:35:55;;;;;;;2.00;0.70;;;;;;;9.41;84.50;99514.13;3578487;40;20052;-63
2022/09/27 05:38:22;;;;;;;1.02;0.50;;;;;;;9.93;84.06;99607.50;3578197;40;20064;-63
2022/09/27 05:40:49;;;;;;;3.63;0.80;;;;;;;9.89;84.69;99589.91;3578573;40;20055;-65
2022/09/27 05:43:19;;;;;;;2.28;0.73;;;;;;;9.38;84.10;99504.47;3575783;40;20301;-66
2022/09/27 05:45:44;;;;;;;1.95;0.90;;;;;;;9.95;84.19;99589.41;3578821;40;20089;-64
2022/09/27 05:48:11;;;;;;;3.28;0.60;;;;;;;9.56;84.44;99523.66;3580136;40;20085;-66
2022/09/27 05:50:37;;;;;;;1.23;0.50;;;;;;;10.06;84.13;99606.53;3578474;40;20288;-65
2022/09/27 05:53:04;;;;;;;3.85;0.80;;;;;;;10.06;83.38;99609.22;3579904;40;20690;-65
2022/09/27 05:55:29;;;;;;;2.20;0.68;;;;;;;9.97;83.70;99603.59;3580091;40;20052;-64
2022/09/27 05:58:01;;;;;;;1.88;0.70;;;;;;;10.07;84.54;99618.97;3578580;40;20056;-65
2022/09/27 06:00:28;;;;;;;1.58;0.40;;;;;;;10.07;84.13;99618.97;3576446;40;20064;-63
2022/09/27 06:03:06;;;;;;;0.60;0.43;;;;;;;10.07;83.29;99614.44;3578586;40;20087;-63
2022/09/27 06:05:37;;;;;;;4.07;0.60;;;;;;;10.09;84.21;99619.72;3580996;40;20048;-63
2022/09/27 06:08:09;;;;;;;1.77;0.45;;;;;;;10.08;84.05;99616.16;3577976;40;20138;-63
2022/09/27 06:10:36;;;;;;;4.03;0.73;;;;;;;9.51;83.16;99533.88;3580172;40;20121;-62
2022/09/27 06:13:06;;;;;;;1.05;0.45;;;;;;;10.07;83.32;99624.34;3579565;40;20044;-62
2022/09/27 06:15:35;;;;;;;2.67;0.57;;;;;;;10.07;83.77;99618.97;3579909;40;20369;-64
2022/09/27 06:18:11;;;;;;;1.60;0.43;;;;;;;10.02;82.65;99623.84;3578674;40;20056;-63
2022/09/27 06:20:40;;;;;;;1.63;0.50;;;;;;;10.02;83.50;99618.47;3578334;40;20075;-62
2022/09/27 06:23:11;;;;;;;1.15;0.50;;;;;;;9.94;82.81;99619.94;3578869;40;20125;-64
2022/09/27 06:25:39;;;;;;;3.70;0.88;;;;;;;9.94;83.42;99617.25;3579048;40;20052;-63
2022/09/27 06:28:04;;;;;;;1.80;0.73;;;;;;;9.95;83.77;99610.03;3577553;40;20160;-62
2022/09/27 06:30:30;;;;;;;1.25;0.73;;;;;;;9.92;83.38;99604.91;3580523;40;21544;-64
2022/09/27 06:32:59;;;;;;;3.00;1.27;;;;;;;9.95;84.09;99616.25;3577447;40;20098;-62
2022/09/27 06:35:27;;;;;;;2.10;1.10;;;;;;;9.97;84.10;99613.47;3577281;40;20055;-62
2022/09/27 06:37:54;;;;;;;2.05;1.30;;;;;;;9.95;83.52;99613.56;3578781;40;20064;-62
2022/09/27 06:40:21;;;;;;;3.53;1.38;;;;;;;9.96;83.85;99622.50;3579612;40;20045;-62
2022/09/27 06:42:48;;;;;;;1.08;0.93;;;;;;;9.89;84.04;99611.38;3578041;40;20096;-63
2022/09/27 06:45:15;;;;;;;3.35;1.65;;;;;;;9.96;83.68;99626.03;3579841;40;20068;-63
2022/09/27 06:47:40;;;;;;;3.80;1.80;;;;;;;9.97;84.39;99627.75;3579866;40;20052;-64
2022/09/27 06:50:06;;;;;;;2.88;1.75;;;;;;;9.94;83.63;99622.63;3579776;40;20296;-63
2022/09/27 06:52:34;;;;;;;2.42;1.77;;;;;;;9.98;84.40;99623.22;3577498;40;20048;-62
2022/09/27 06:55:02;;;;;;;4.15;1.67;;;;;;;9.96;83.42;99619.84;3577206;40;20053;-63
2022/09/27 07:00:28;;;;;;;4.63;2.10;;;;;;;10.00;84.87;99621.28;3576337;40;20139;-62
2022/09/27 07:02:59;;;;;;;2.33;1.95;;;;;;;10.02;84.36;99626.53;3577670;40;20060;-62
2022/09/27 07:05:28;;;;;;;2.97;2.10;;;;;;;10.05;84.95;99618.22;3576867;40;20071;-63
2022/09/27 07:07:56;;;;;;;3.65;1.88;;;;;;;9.21;84.45;99475.47;3577170;40;20530;-62
2022/09/27 07:10:25;;;;;;;3.33;2.10;;;;;;;10.11;84.05;99631.16;3578697;40;20064;-62
2022/09/27 07:12:51;;;;;;;5.00;1.88;;;;;;;10.09;84.75;99625.94;3579018;40;20375;-63
2022/09/27 07:15:22;;;;;;;5.25;2.05;;;;;;;10.17;84.67;99631.53;3578224;40;20068;-62
2022/09/27 07:17:57;;;;;;;3.42;2.00;;;;;;;10.24;84.91;99629.22;3579283;40;20373;-64
2022/09/27 07:20:23;;;;;;;3.03;1.80;;;;;;;10.28;84.68;99633.41;3578675;40;20060;-64
2022/09/27 07:22:49;;;;;;;3.78;1.92;;;;;;;10.20;85.08;99619.69;3579465;40;20064;-63
2022/09/27 07:25:15;;;;;;;3.33;2.13;;;;;;;10.34;84.75;99634.72;3576887;40;20080;-63
2022/09/27 07:27:40;;;;;;;3.40;2.15;;;;;;;10.31;84.39;99638.53;3578719;40;20429;-62
2022/09/27 07:30:09;;;;;;;6.60;3.55;;;;;;;10.38;84.84;99650.50;3584859;39;20055;-63
2022/09/27 07:32:35;;;;;;;6.65;2.33;;;;;;;10.44;84.40;99644.63;3579667;40;20393;-62
2022/09/27 07:35:07;;;;;;;2.33;2.00;;;;;;;10.44;84.62;99633.03;3575990;40;20060;-63
2022/09/27 07:37:36;;;;;;;3.78;2.45;;;;;;;10.47;84.58;99643.53;3577113;40;20383;-64
2022/09/27 07:40:06;;;;;;;3.22;2.80;;;;;;;10.45;84.04;99643.66;3579697;40;20055;-62
2022/09/27 07:42:32;;;;;;;3.17;2.80;;;;;;;10.51;84.61;99649.53;3576686;39;20165;-63
2022/09/27 07:44:58;;;;;;;4.72;2.70;;;;;;;9.90;84.13;99559.41;3576593;40;20084;-64
2022/09/27 07:47:26;;;;;;;5.32;3.03;;;;;;;10.45;84.10;99646.34;3575830;40;20415;-64
2022/09/27 07:49:52;;;;;;;3.58;3.00;;;;;;;10.06;84.27;99575.16;3576695;40;20080;-63
2022/09/27 07:52:19;;;;;;;6.78;3.45;;;;;;;10.55;84.83;99648.28;3573500;40;20067;-63
2022/09/27 07:54:47;;;;;;;4.40;3.75;;;;;;;10.51;84.25;99647.69;3576181;40;20055;-63
2022/09/27 07:57:14;;;;;;;3.88;3.58;;;;;;;10.52;84.06;99652.06;3573421;40;20476;-63
2022/09/27 07:59:40;;;;;;;5.03;3.67;;;;;;;10.54;84.99;99654.66;3574440;40;20060;-63
2022/09/27 08:02:14;;;;;;;5.65;4.47;;;;;;;10.54;84.38;99663.56;3577625;40;20063;-64
2022/09/27 08:04:42;;;;;;;5.43;3.85;;;;;;;10.07;85.09;99587.59;3577043;40;20057;-62
2022/09/27 08:07:09;;;;;;;19.30;13.73;;;;;;;10.59;85.23;99660.50;3574787;40;20669;-63
2022/09/27 08:09:35;;;;;;;6.68;4.45;;;;;;;9.95;85.07;99562.56;3578232;40;20160;-63
2022/09/27 08:12:03;;;;;;;6.70;4.32;;;;;;;10.58;85.26;99666.84;3580121;40;20057;-63
2022/09/27 08:14:29;;;;;;;6.38;4.90;;;;;;;10.54;85.34;99660.03;3574844;40;20088;-62
2022/09/27 08:16:55;;;;;;;6.72;4.65;;;;;;;10.62;84.50;99668.31;3578137;40;20060;-63
2022/09/27 08:19:21;;;;;;;5.03;4.50;;;;;;;10.62;85.36;99671.84;3577042;40;20363;-62
2022/09/27 08:21:47;;;;;;;6.03;5.07;;;;;;;10.65;85.23;99668.06;3575813;40;20063;-62
2022/09/27 08:24:13;;;;;;;9.43;5.32;;;;;;;10.64;84.92;99660.97;3575584;40;20116;-61
2022/09/27 08:26:39;;;;;;;6.28;5.07;;;;;;;10.71;85.30;99672.09;3573605;40;20443;-62
2022/09/27 08:29:05;;;;;;;6.97;5.95;;;;;;;10.75;85.11;99673.53;3576370;40;20044;-64
2022/09/27 08:31:31;;;;;;;6.82;5.88;;;;;;;10.76;85.58;99669.91;3583750;39;20233;-64
2022/09/27 08:33:56;;;;;;;10.65;6.25;;;;;;;10.78;85.53;99674.16;3575396;40;20052;-64
2022/09/27 08:36:23;;;;;;;16.70;11.07;;;;;;;10.81;84.79;99671.22;3577975;40;20056;-64
2022/09/27 08:38:50;;;;;;;11.32;6.95;;;;;;;10.73;84.11;99646.81;3577778;40;20060;-64
2022/09/27 08:41:40;;;;;;;7.60;6.90;;;;;;;10.85;84.49;99666.47;3576015;40;20067;-64
2022/09/27 08:44:30;;;;;;;7.97;7.10;;;;;;;10.86;84.35;99660.94;3577924;40;20084;-64
2022/09/27 08:47:09;;;;;;;8.45;7.60;;;;;;;10.86;84.10;99658.25;3577919;40;20125;-64
2022/09/27 08:50:20;;;;;;;8.88;7.97;;;;;;;10.93;83.97;99662.16;3576769;40;20055;-63
2022/09/27 08:53:21;;;;;;;11.20;9.13;;;;;;;10.95;84.55;99664.72;3575768;40;21257;-64
2022/09/27 08:55:49;;;;;;;9.43;8.27;;;;;;;10.97;84.28;99678.03;3567999;39;20111;-64
2022/09/27 08:58:34;;;;;;;9.20;8.25;;;;;;;10.97;84.10;99672.66;3576212;40;20063;-63
2022/09/27 09:01:10;;;;;;;10.57;9.18;;;;;;;10.55;84.24;99594.56;3575025;40;20185;-64
2022/09/27 09:03:45;;;;;;;11.75;9.57;;;;;;;11.06;84.78;99666.50;3579236;40;20064;-64
2022/09/27 09:06:58;;;;;;;10.70;9.60;;;;;;;11.10;84.26;99667.97;3576649;40;20092;-64
2022/09/27 09:12:45;;;;;;;11.85;10.40;;;;;;;11.12;84.69;99664.16;3573804;40;20051;-63
2022/09/27 09:13:30;;;;;;;11.20;9.75;;;;;;;11.18;84.29;99670.88;3540556;40;20046;-65
2022/09/27 09:16:14;;;;;;;11.82;10.13;;;;;;;11.23;84.37;99681.28;3575798;40;20048;-65
2022/09/27 09:19:14;;;;;;;12.63;9.73;;;;;;;11.30;84.05;99685.16;3572526;40;20049;-64
2022/09/27 09:22:42;;;;;;;11.32;9.18;;;;;;;11.29;83.37;99684.31;3572112;40;20100;-64
2022/09/27 09:25:21;;;;;;;14.55;9.60;;;;;;;11.28;82.84;99681.72;3574846;40;20061;-64
2022/09/27 09:28:31;;;;;;;13.27;11.00;;;;;;;11.31;84.21;99685.03;3573612;40;20375;-64
2022/09/27 09:31:24;;;;;;;13.73;11.23;;;;;;;11.36;84.23;99695.41;3577085;40;20064;-64
2022/09/27 09:34:05;;;;;;;12.82;11.45;;;;;;;11.41;84.95;99689.63;3577350;40;20060;-64
2022/09/27 09:36:49;;;;;;;14.18;12.25;;;;;;;11.44;84.54;99686.69;3576031;40;20063;-64
2022/09/27 09:39:29;;;;;;;14.35;12.65;;;;;;;11.41;83.90;99689.63;3575041;40;20072;-65
2022/09/27 09:42:18;;;;;;;14.93;12.85;;;;;;;11.44;83.64;99686.69;3576454;40;20079;-64
2022/09/27 09:44:59;;;;;;;15.13;12.80;;;;;;;11.37;83.35;99687.19;3574319;40;20273;-64
2022/09/27 09:47:50;;;;;;;14.80;12.52;;;;;;;11.36;84.01;99684.66;3576088;40;20079;-64
2022/09/27 09:50:27;;;;;;;14.82;12.55;;;;;;;10.83;83.68;99607.44;3582927;39;20076;-65
2022/09/27 09:53:03;;;;;;;17.17;12.40;;;;;;;11.31;83.64;99693.09;3575738;40;20056;-65
2022/09/27 09:55:35;;;;;;;11.70;10.48;;;;;;;11.19;83.78;99685.19;3574918;40;20061;-62
2022/09/27 09:58:24;;;;;;;11.80;10.57;;;;;;;11.26;83.82;99699.81;3574004;40;20062;-64
2022/09/27 10:00:59;;;;;;;10.32;9.18;;;;;;;11.28;84.03;99695.19;3576057;40;20071;-64
2022/09/27 10:03:25;;;;;;;10.15;9.00;;;;;;;10.89;84.88;99623.06;3577416;40;20067;-63
2022/09/27 10:05:51;;;;;;;9.38;7.90;;;;;;;10.77;83.66;99607.09;3578589;40;20102;-64
2022/09/27 10:08:21;;;;;;;7.30;6.13;;;;;;;11.22;82.74;99682.25;3574831;40;20062;-64
2022/09/27 10:10:47;;;;;;;6.78;6.07;;;;;;;11.23;83.47;99690.19;3577309;40;20063;-65
2022/09/27 10:13:20;;;;;;;7.70;5.55;;;;;;;10.62;82.51;99599.28;3577127;40;20118;-65
2022/09/27 10:16:01;;;;;;;5.78;3.90;;;;;;;11.16;82.13;99699.72;3579548;40;20059;-63
2022/09/27 10:18:28;;;;;;;4.03;3.05;;;;;;;11.12;82.88;99695.59;3575818;40;20112;-63
2022/09/27 10:21:05;;;;;;;4.85;3.38;;;;;;;11.11;83.50;99693.91;3577752;40;20055;-63
2022/09/27 10:23:31;;;;;;;3.50;2.53;;;;;;;10.74;82.57;99640.44;3580192;40;20059;-63
2022/09/27 10:26:03;;;;;;;4.35;2.65;;;;;;;10.97;82.52;99695.00;3575630;40;20080;-63
2022/09/27 10:28:36;;;;;;;2.92;2.00;;;;;;;10.94;82.67;99697.94;3575414;40;20055;-64
2022/09/27 10:31:10;;;;;;;3.53;1.87;;;;;;;10.88;82.48;99704.69;3575940;40;20080;-64
2022/09/27 10:33:56;;;;;;;1.33;1.02;;;;;;;10.81;82.19;99706.16;3576496;40;20274;-64
2022/09/27 10:36:30;;;;;;;3.78;1.20;;;;;;;10.76;81.77;99702.16;3579344;40;20060;-63
2022/09/27 10:39:01;;;;;;;2.38;0.60;;;;;;;10.50;81.86;99680.03;3577993;40;20060;-63
2022/09/27 10:41:40;;;;;;;2.22;0.85;;;;;;;10.67;81.75;99709.13;3578657;40;20048;-63
2022/09/27 10:44:14;;;;;;;1.13;0.77;;;;;;;10.66;81.38;99716.31;3579610;40;20400;-63
2022/09/27 10:46:44;;;;;;;2.70;0.70;;;;;;;10.02;80.78;99605.03;3579603;40;20084;-63
2022/09/27 10:49:41;;;;;;;1.45;0.55;;;;;;;10.61;81.85;99704.22;3577529;40;20079;-63
2022/09/27 10:52:20;;;;;;;1.92;0.73;;;;;;;10.63;81.61;99704.97;3581661;40;20056;-64
2022/09/27 10:54:56;;;;;;;2.20;0.68;;;;;;;10.74;83.11;99706.78;3589713;40;20100;-63
2022/09/27 10:57:27;;;;;;;2.47;0.90;;;;;;;10.77;83.17;99699.31;3585131;39;20106;-64
2022/09/27 10:59:59;;;;;;;2.28;1.25;;;;;;;10.90;83.18;99712.63;3580800;40;20189;-64
2022/09/27 11:02:32;;;;;;;3.70;1.38;;;;;;;10.91;83.27;99717.03;3580261;40;20141;-63
2022/09/27 11:05:28;;;;;;;3.70;1.20;;;;;;;10.96;83.84;99704.06;3576024;40;20121;-64
2022/09/27 11:08:39;;;;;;;1.92;1.50;;;;;;;10.96;82.73;99701.38;3579366;40;20040;-65
2022/09/27 11:11:27;;;;;;;2.63;2.03;;;;;;;10.94;80.91;99700.63;3577567;40;20272;-64
2022/09/27 11:14:03;;;;;;;1.52;0.95;;;;;;;10.95;79.93;99702.38;3579558;40;20311;-64
2022/09/27 11:16:53;;;;;;;1.35;1.20;;;;;;;11.00;79.98;99701.97;3580066;40;20060;-63
2022/09/27 11:19:40;;;;;;;2.42;0.75;;;;;;;11.07;80.55;99685.22;3583332;40;20403;-64
2022/09/27 11:22:11;;;;;;;1.98;0.80;;;;;;;11.16;79.64;99686.28;3575940;40;20071;-64
2022/09/27 11:24:52;;;;;;;2.70;1.38;;;;;;;11.30;79.58;99687.84;3574619;40;20081;-63
2022/09/27 11:28:08;;;;;;;2.20;1.08;;;;;;;11.49;79.10;99684.47;3578179;40;20048;-63
2022/09/27 11:31:09;;;;;;;1.30;0.68;;;;;;;11.72;80.51;99675.31;3581786;40;20391;-63
2022/09/27 11:34:17;;;;;;;2.08;1.20;;;;;;;11.85;78.45;99665.22;3577759;40;20058;-64
2022/09/27 11:37:14;;;;;;;2.58;0.95;;;;;;;12.09;78.93;99664.09;3578659;40;20052;-63
2022/09/27 11:39:55;;;;;;;4.65;2.25;;;;;;;12.26;78.02;99670.72;3583946;40;20064;-63
2022/09/27 11:43:07;;;;;;;2.55;0.90;;;;;;;12.40;76.78;99666.78;3573982;40;20423;-62
2022/09/27 11:45:54;;;;;;;2.03;0.70;;;;;;;12.60;76.32;99668.59;3576496;40;20048;-64
2022/09/27 11:48:54;;;;;;;1.25;0.57;;;;;;;12.79;74.69;99675.91;3577803;40;20094;-63
2022/09/27 11:51:40;;;;;;;3.33;0.93;;;;;;;12.92;73.88;99681.03;3574570;40;20040;-65
2022/09/27 11:54:21;;;;;;;1.30;0.80;;;;;;;13.14;74.28;99675.41;3580265;40;20664;-63
2022/09/27 11:57:30;;;;;;;1.42;0.63;;;;;;;13.34;72.78;99676.31;3579667;40;20314;-63
2022/09/27 12:00:09;;;;;;;0.68;0.50;;;;;;;13.43;70.53;99675.47;3586103;40;20052;-63
2022/09/27 12:03:12;;;;;;;2.72;0.80;;;;;;;13.49;70.46;99673.22;3580381;40;20041;-63
2022/09/27 12:05:56;;;;;;;2.53;0.80;;;;;;;13.58;70.41;99672.34;3578704;40;20052;-64
2022/09/27 12:08:57;;;;;;;1.80;0.57;;;;;;;13.77;72.58;99666.09;3575199;40;20107;-63
2022/09/27 12:11:43;;;;;;;1.05;0.70;;;;;;;14.05;72.07;99665.19;3575998;40;20059;-63
2022/09/27 12:14:39;;;;;;;2.10;0.80;;;;;;;14.14;69.73;99664.31;3574443;40;20065;-63
2022/09/27 12:17:32;;;;;;;1.85;0.55;;;;;;;14.28;68.48;99665.69;3578118;40;20092;-63
2022/09/27 12:20:06;;;;;;;1.08;0.60;;;;;;;14.35;70.09;99665.94;3574536;40;20060;-63